sensor_id;sensor_type;location;lat;lon;timestamp;P1;durP1;ratioP1;P2;durP2;ratioP2
22929;SDS011;11630;42.660;23.292;2023-09-18T00:00:50;20.23;;;16.10;;
22929;SDS011;11630;42.660;23.292;2023-09-18T00:03:23;21.03;;;15.80;;
22929;SDS011;11630;42.660;23.292;2023-09-18T00:05:54;19.17;;;15.20;;
22929;SDS011;11630;42.660;23.292;2023-09-18T00:08:25;19.37;;;14.53;;
22929;SDS011;11630;42.660;23.292;2023-09-18T00:10:55;23.77;;;14.93;;
22929;SDS011;11630;42.660;23.292;2023-09-18T00:13:26;17.27;;;14.73;;
22929;SDS011;11630;42.660;23.292;2023-09-18T00:15:58;18.53;;;15.43;;
22929;SDS011;11630;42.660;23.292;2023-09-18T00:18:29;23.27;;;14.60;;
22929;SDS011;11630;42.660;23.292;2023-09-18T00:20:59;16.73;;;13.87;;
22929;SDS011;11630;42.660;23.292;2023-09-18T00:23:30;17.97;;;14.90;;
22929;SDS011;11630;42.660;23.292;2023-09-18T00:26:01;19.63;;;14.93;;
22929;SDS011;11630;42.660;23.292;2023-09-18T00:28:32;17.87;;;14.30;;
22929;SDS011;11630;42.660;23.292;2023-09-18T00:31:03;17.00;;;14.50;;
22929;SDS011;11630;42.660;23.292;2023-09-18T00:33:34;17.03;;;14.80;;
22929;SDS011;11630;42.660;23.292;2023-09-18T00:36:05;16.20;;;14.13;;
22929;SDS011;11630;42.660;23.292;2023-09-18T00:38:35;19.10;;;15.43;;
22929;SDS011;11630;42.660;23.292;2023-09-18T00:41:06;22.43;;;16.43;;
22929;SDS011;11630;42.660;23.292;2023-09-18T00:43:37;25.17;;;16.27;;
22929;SDS011;11630;42.660;23.292;2023-09-18T00:46:08;18.80;;;15.30;;
22929;SDS011;11630;42.660;23.292;2023-09-18T00:48:39;23.03;;;15.43;;
22929;SDS011;11630;42.660;23.292;2023-09-18T00:51:10;21.03;;;15.87;;
22929;SDS011;11630;42.660;23.292;2023-09-18T00:53:45;17.70;;;14.87;;
22929;SDS011;11630;42.660;23.292;2023-09-18T00:56:18;17.00;;;14.77;;
22929;SDS011;11630;42.660;23.292;2023-09-18T00:58:48;15.67;;;14.07;;
22929;SDS011;11630;42.660;23.292;2023-09-18T01:01:18;23.33;;;14.43;;
22929;SDS011;11630;42.660;23.292;2023-09-18T01:03:50;20.03;;;15.90;;
22929;SDS011;11630;42.660;23.292;2023-09-18T01:06:22;23.60;;;15.10;;
22929;SDS011;11630;42.660;23.292;2023-09-18T01:08:54;20.30;;;14.90;;
22929;SDS011;11630;42.660;23.292;2023-09-18T01:11:26;17.90;;;15.17;;
22929;SDS011;11630;42.660;23.292;2023-09-18T01:14:09;21.27;;;17.10;;
22929;SDS011;11630;42.660;23.292;2023-09-18T01:16:44;21.73;;;15.70;;
22929;SDS011;11630;42.660;23.292;2023-09-18T01:19:42;18.63;;;15.17;;
22929;SDS011;11630;42.660;23.292;2023-09-18T01:22:17;21.63;;;15.33;;
22929;SDS011;11630;42.660;23.292;2023-09-18T01:24:48;19.97;;;16.03;;
22929;SDS011;11630;42.660;23.292;2023-09-18T01:27:19;19.93;;;15.53;;
22929;SDS011;11630;42.660;23.292;2023-09-18T01:29:50;20.30;;;14.63;;
22929;SDS011;11630;42.660;23.292;2023-09-18T01:32:21;18.50;;;14.10;;
22929;SDS011;11630;42.660;23.292;2023-09-18T01:34:54;21.00;;;15.40;;
22929;SDS011;11630;42.660;23.292;2023-09-18T01:37:28;19.53;;;16.27;;
22929;SDS011;11630;42.660;23.292;2023-09-18T01:39:58;24.47;;;15.27;;
22929;SDS011;11630;42.660;23.292;2023-09-18T01:42:29;15.60;;;13.70;;
22929;SDS011;11630;42.660;23.292;2023-09-18T01:45:00;18.00;;;14.17;;
22929;SDS011;11630;42.660;23.292;2023-09-18T01:47:32;19.77;;;15.00;;
22929;SDS011;11630;42.660;23.292;2023-09-18T01:50:03;17.23;;;13.40;;
22929;SDS011;11630;42.660;23.292;2023-09-18T01:52:35;18.50;;;14.43;;
22929;SDS011;11630;42.660;23.292;2023-09-18T01:55:05;16.60;;;13.63;;
22929;SDS011;11630;42.660;23.292;2023-09-18T01:57:39;20.33;;;14.57;;
22929;SDS011;11630;42.660;23.292;2023-09-18T02:00:11;26.57;;;16.03;;
22929;SDS011;11630;42.660;23.292;2023-09-18T02:02:42;17.67;;;15.37;;
22929;SDS011;11630;42.660;23.292;2023-09-18T02:05:13;19.50;;;14.67;;
22929;SDS011;11630;42.660;23.292;2023-09-18T02:07:44;17.37;;;15.07;;
22929;SDS011;11630;42.660;23.292;2023-09-18T02:10:16;16.70;;;14.80;;
22929;SDS011;11630;42.660;23.292;2023-09-18T02:12:47;19.53;;;14.27;;
22929;SDS011;11630;42.660;23.292;2023-09-18T02:15:18;17.63;;;14.53;;
22929;SDS011;11630;42.660;23.292;2023-09-18T02:17:49;17.93;;;14.97;;
22929;SDS011;11630;42.660;23.292;2023-09-18T02:20:20;19.03;;;15.37;;
22929;SDS011;11630;42.660;23.292;2023-09-18T02:22:51;19.00;;;15.20;;
22929;SDS011;11630;42.660;23.292;2023-09-18T02:25:22;16.83;;;14.90;;
22929;SDS011;11630;42.660;23.292;2023-09-18T02:27:53;18.43;;;14.73;;
22929;SDS011;11630;42.660;23.292;2023-09-18T02:30:24;19.80;;;15.97;;
22929;SDS011;11630;42.660;23.292;2023-09-18T02:32:55;20.90;;;14.63;;
22929;SDS011;11630;42.660;23.292;2023-09-18T02:35:26;20.97;;;18.13;;
22929;SDS011;11630;42.660;23.292;2023-09-18T02:37:56;22.97;;;19.10;;
22929;SDS011;11630;42.660;23.292;2023-09-18T02:40:28;26.33;;;19.03;;
22929;SDS011;11630;42.660;23.292;2023-09-18T02:42:58;22.87;;;18.80;;
22929;SDS011;11630;42.660;23.292;2023-09-18T02:45:28;23.80;;;20.67;;
22929;SDS011;11630;42.660;23.292;2023-09-18T02:47:59;23.63;;;20.47;;
22929;SDS011;11630;42.660;23.292;2023-09-18T02:50:30;26.30;;;22.07;;
22929;SDS011;11630;42.660;23.292;2023-09-18T02:53:01;25.17;;;22.47;;
22929;SDS011;11630;42.660;23.292;2023-09-18T02:55:35;24.17;;;20.70;;
22929;SDS011;11630;42.660;23.292;2023-09-18T02:58:04;36.83;;;21.20;;
22929;SDS011;11630;42.660;23.292;2023-09-18T03:00:40;27.20;;;22.20;;
22929;SDS011;11630;42.660;23.292;2023-09-18T03:03:13;28.70;;;21.40;;
22929;SDS011;11630;42.660;23.292;2023-09-18T03:05:44;28.53;;;22.57;;
22929;SDS011;11630;42.660;23.292;2023-09-18T03:08:14;24.67;;;20.87;;
22929;SDS011;11630;42.660;23.292;2023-09-18T03:10:45;26.97;;;19.60;;
22929;SDS011;11630;42.660;23.292;2023-09-18T03:13:16;26.70;;;21.60;;
22929;SDS011;11630;42.660;23.292;2023-09-18T03:15:47;25.83;;;23.13;;
22929;SDS011;11630;42.660;23.292;2023-09-18T03:18:17;26.73;;;23.37;;
22929;SDS011;11630;42.660;23.292;2023-09-18T03:20:48;24.33;;;20.23;;
22929;SDS011;11630;42.660;23.292;2023-09-18T03:23:19;24.30;;;19.63;;
22929;SDS011;11630;42.660;23.292;2023-09-18T03:25:50;25.93;;;22.20;;
22929;SDS011;11630;42.660;23.292;2023-09-18T03:28:21;22.80;;;19.53;;
22929;SDS011;11630;42.660;23.292;2023-09-18T03:30:52;25.47;;;21.23;;
22929;SDS011;11630;42.660;23.292;2023-09-18T03:33:22;31.60;;;23.43;;
22929;SDS011;11630;42.660;23.292;2023-09-18T03:35:53;24.90;;;22.00;;
22929;SDS011;11630;42.660;23.292;2023-09-18T03:38:24;28.33;;;22.40;;
22929;SDS011;11630;42.660;23.292;2023-09-18T03:40:54;26.63;;;21.60;;
22929;SDS011;11630;42.660;23.292;2023-09-18T03:43:26;27.53;;;20.10;;
22929;SDS011;11630;42.660;23.292;2023-09-18T03:46:05;25.63;;;21.27;;
22929;SDS011;11630;42.660;23.292;2023-09-18T03:48:35;24.93;;;20.70;;
22929;SDS011;11630;42.660;23.292;2023-09-18T03:51:07;25.37;;;21.83;;
22929;SDS011;11630;42.660;23.292;2023-09-18T03:53:38;28.00;;;21.97;;
22929;SDS011;11630;42.660;23.292;2023-09-18T03:56:08;23.03;;;20.37;;
22929;SDS011;11630;42.660;23.292;2023-09-18T03:58:39;23.43;;;19.87;;
22929;SDS011;11630;42.660;23.292;2023-09-18T04:01:10;24.60;;;20.83;;
22929;SDS011;11630;42.660;23.292;2023-09-18T04:03:41;23.93;;;20.00;;
22929;SDS011;11630;42.660;23.292;2023-09-18T04:06:12;24.23;;;21.00;;
22929;SDS011;11630;42.660;23.292;2023-09-18T04:08:43;24.83;;;20.37;;
22929;SDS011;11630;42.660;23.292;2023-09-18T04:11:14;31.30;;;22.27;;
22929;SDS011;11630;42.660;23.292;2023-09-18T04:13:47;39.87;;;26.70;;
22929;SDS011;11630;42.660;23.292;2023-09-18T04:16:18;26.03;;;22.37;;
22929;SDS011;11630;42.660;23.292;2023-09-18T04:18:49;27.83;;;21.70;;
22929;SDS011;11630;42.660;23.292;2023-09-18T04:21:19;25.20;;;22.13;;
22929;SDS011;11630;42.660;23.292;2023-09-18T04:23:50;32.43;;;27.50;;
22929;SDS011;11630;42.660;23.292;2023-09-18T04:26:21;33.20;;;22.67;;
22929;SDS011;11630;42.660;23.292;2023-09-18T04:28:52;28.17;;;20.90;;
22929;SDS011;11630;42.660;23.292;2023-09-18T04:31:23;26.63;;;21.77;;
22929;SDS011;11630;42.660;23.292;2023-09-18T04:33:54;25.83;;;21.60;;
22929;SDS011;11630;42.660;23.292;2023-09-18T04:36:24;28.77;;;22.47;;
22929;SDS011;11630;42.660;23.292;2023-09-18T04:38:55;32.23;;;21.47;;
22929;SDS011;11630;42.660;23.292;2023-09-18T04:41:26;28.03;;;21.30;;
22929;SDS011;11630;42.660;23.292;2023-09-18T04:43:57;28.17;;;21.03;;
22929;SDS011;11630;42.660;23.292;2023-09-18T04:46:28;35.83;;;22.30;;
22929;SDS011;11630;42.660;23.292;2023-09-18T04:48:58;31.93;;;22.67;;
22929;SDS011;11630;42.660;23.292;2023-09-18T04:51:31;32.13;;;24.13;;
22929;SDS011;11630;42.660;23.292;2023-09-18T04:54:04;28.63;;;25.20;;
22929;SDS011;11630;42.660;23.292;2023-09-18T04:56:34;33.63;;;24.83;;
22929;SDS011;11630;42.660;23.292;2023-09-18T04:59:05;37.40;;;26.33;;
22929;SDS011;11630;42.660;23.292;2023-09-18T05:01:36;29.57;;;23.90;;
22929;SDS011;11630;42.660;23.292;2023-09-18T05:04:07;26.50;;;23.47;;
22929;SDS011;11630;42.660;23.292;2023-09-18T05:06:38;30.23;;;23.57;;
22929;SDS011;11630;42.660;23.292;2023-09-18T05:09:09;31.67;;;25.27;;
22929;SDS011;11630;42.660;23.292;2023-09-18T05:11:39;31.57;;;24.77;;
22929;SDS011;11630;42.660;23.292;2023-09-18T05:14:10;31.50;;;24.47;;
22929;SDS011;11630;42.660;23.292;2023-09-18T05:16:41;28.87;;;22.60;;
22929;SDS011;11630;42.660;23.292;2023-09-18T05:19:12;30.60;;;24.10;;
22929;SDS011;11630;42.660;23.292;2023-09-18T05:21:42;27.67;;;22.57;;
22929;SDS011;11630;42.660;23.292;2023-09-18T05:24:13;29.93;;;23.43;;
22929;SDS011;11630;42.660;23.292;2023-09-18T05:26:44;29.40;;;23.93;;
22929;SDS011;11630;42.660;23.292;2023-09-18T05:29:15;33.77;;;23.20;;
22929;SDS011;11630;42.660;23.292;2023-09-18T05:31:46;28.77;;;22.83;;
22929;SDS011;11630;42.660;23.292;2023-09-18T05:34:17;29.53;;;21.70;;
22929;SDS011;11630;42.660;23.292;2023-09-18T05:36:48;27.20;;;21.33;;
22929;SDS011;11630;42.660;23.292;2023-09-18T05:39:18;29.70;;;22.57;;
22929;SDS011;11630;42.660;23.292;2023-09-18T05:41:49;31.87;;;23.20;;
22929;SDS011;11630;42.660;23.292;2023-09-18T05:44:20;32.63;;;23.77;;
22929;SDS011;11630;42.660;23.292;2023-09-18T05:46:50;32.27;;;23.17;;
22929;SDS011;11630;42.660;23.292;2023-09-18T05:49:21;28.50;;;22.57;;
22929;SDS011;11630;42.660;23.292;2023-09-18T05:51:52;32.43;;;24.67;;
22929;SDS011;11630;42.660;23.292;2023-09-18T05:54:23;30.77;;;23.83;;
22929;SDS011;11630;42.660;23.292;2023-09-18T05:56:54;28.10;;;23.20;;
22929;SDS011;11630;42.660;23.292;2023-09-18T05:59:25;33.07;;;24.27;;
22929;SDS011;11630;42.660;23.292;2023-09-18T06:01:57;28.70;;;23.67;;
22929;SDS011;11630;42.660;23.292;2023-09-18T06:04:28;31.27;;;25.00;;
22929;SDS011;11630;42.660;23.292;2023-09-18T06:06:59;31.80;;;23.07;;
22929;SDS011;11630;42.660;23.292;2023-09-18T06:09:30;28.03;;;23.77;;
22929;SDS011;11630;42.660;23.292;2023-09-18T06:12:01;32.03;;;24.97;;
22929;SDS011;11630;42.660;23.292;2023-09-18T06:14:32;31.80;;;24.87;;
22929;SDS011;11630;42.660;23.292;2023-09-18T06:17:04;32.57;;;24.40;;
22929;SDS011;11630;42.660;23.292;2023-09-18T06:19:35;29.77;;;23.20;;
22929;SDS011;11630;42.660;23.292;2023-09-18T06:22:06;32.70;;;23.63;;
22929;SDS011;11630;42.660;23.292;2023-09-18T06:24:38;33.73;;;24.10;;
22929;SDS011;11630;42.660;23.292;2023-09-18T06:27:07;33.83;;;21.27;;
22929;SDS011;11630;42.660;23.292;2023-09-18T06:29:36;28.17;;;23.07;;
22929;SDS011;11630;42.660;23.292;2023-09-18T06:32:07;30.37;;;22.83;;
22929;SDS011;11630;42.660;23.292;2023-09-18T06:34:40;27.23;;;23.50;;
22929;SDS011;11630;42.660;23.292;2023-09-18T06:37:11;31.57;;;22.10;;
22929;SDS011;11630;42.660;23.292;2023-09-18T06:39:42;28.53;;;22.73;;
22929;SDS011;11630;42.660;23.292;2023-09-18T06:42:12;34.03;;;23.37;;
22929;SDS011;11630;42.660;23.292;2023-09-18T06:44:43;31.20;;;22.57;;
22929;SDS011;11630;42.660;23.292;2023-09-18T06:47:13;33.20;;;23.77;;
22929;SDS011;11630;42.660;23.292;2023-09-18T06:49:44;31.13;;;23.90;;
22929;SDS011;11630;42.660;23.292;2023-09-18T06:52:15;37.93;;;25.13;;
22929;SDS011;11630;42.660;23.292;2023-09-18T06:54:46;29.67;;;23.73;;
22929;SDS011;11630;42.660;23.292;2023-09-18T06:57:17;33.13;;;21.97;;
22929;SDS011;11630;42.660;23.292;2023-09-18T06:59:50;32.53;;;23.07;;
22929;SDS011;11630;42.660;23.292;2023-09-18T07:02:21;22.43;;;17.63;;
22929;SDS011;11630;42.660;23.292;2023-09-18T07:04:52;26.87;;;20.43;;
22929;SDS011;11630;42.660;23.292;2023-09-18T07:07:23;28.33;;;21.47;;
22929;SDS011;11630;42.660;23.292;2023-09-18T07:09:54;24.33;;;18.70;;
22929;SDS011;11630;42.660;23.292;2023-09-18T07:12:24;25.20;;;19.10;;
22929;SDS011;11630;42.660;23.292;2023-09-18T07:14:56;25.47;;;20.07;;
22929;SDS011;11630;42.660;23.292;2023-09-18T07:17:26;23.83;;;19.53;;
22929;SDS011;11630;42.660;23.292;2023-09-18T07:19:56;29.97;;;19.37;;
22929;SDS011;11630;42.660;23.292;2023-09-18T07:22:27;25.13;;;18.40;;
22929;SDS011;11630;42.660;23.292;2023-09-18T07:24:58;23.30;;;18.07;;
22929;SDS011;11630;42.660;23.292;2023-09-18T07:27:29;30.87;;;19.30;;
22929;SDS011;11630;42.660;23.292;2023-09-18T07:30:00;28.73;;;18.03;;
22929;SDS011;11630;42.660;23.292;2023-09-18T07:32:31;33.43;;;19.97;;
22929;SDS011;11630;42.660;23.292;2023-09-18T07:35:03;31.93;;;19.03;;
22929;SDS011;11630;42.660;23.292;2023-09-18T07:37:35;23.00;;;18.17;;
22929;SDS011;11630;42.660;23.292;2023-09-18T07:40:06;24.37;;;17.07;;
22929;SDS011;11630;42.660;23.292;2023-09-18T07:42:38;24.27;;;17.90;;
22929;SDS011;11630;42.660;23.292;2023-09-18T07:45:08;30.47;;;17.70;;
22929;SDS011;11630;42.660;23.292;2023-09-18T07:47:42;20.60;;;16.57;;
22929;SDS011;11630;42.660;23.292;2023-09-18T07:50:12;25.50;;;17.00;;
22929;SDS011;11630;42.660;23.292;2023-09-18T07:52:43;24.63;;;15.63;;
22929;SDS011;11630;42.660;23.292;2023-09-18T07:55:14;21.73;;;16.90;;
22929;SDS011;11630;42.660;23.292;2023-09-18T07:57:45;20.10;;;16.40;;
22929;SDS011;11630;42.660;23.292;2023-09-18T08:00:16;27.80;;;16.93;;
22929;SDS011;11630;42.660;23.292;2023-09-18T08:02:48;22.93;;;16.87;;
22929;SDS011;11630;42.660;23.292;2023-09-18T08:05:19;23.30;;;16.70;;
22929;SDS011;11630;42.660;23.292;2023-09-18T08:07:49;18.73;;;16.27;;
22929;SDS011;11630;42.660;23.292;2023-09-18T08:10:20;20.83;;;16.87;;
22929;SDS011;11630;42.660;23.292;2023-09-18T08:12:50;20.53;;;15.97;;
22929;SDS011;11630;42.660;23.292;2023-09-18T08:15:21;20.93;;;16.33;;
22929;SDS011;11630;42.660;23.292;2023-09-18T08:17:52;17.13;;;14.60;;
22929;SDS011;11630;42.660;23.292;2023-09-18T08:20:23;25.77;;;16.50;;
22929;SDS011;11630;42.660;23.292;2023-09-18T08:22:54;26.70;;;17.47;;
22929;SDS011;11630;42.660;23.292;2023-09-18T08:25:23;17.43;;;15.50;;
22929;SDS011;11630;42.660;23.292;2023-09-18T08:27:54;28.37;;;15.77;;
22929;SDS011;11630;42.660;23.292;2023-09-18T08:30:25;22.17;;;16.37;;
22929;SDS011;11630;42.660;23.292;2023-09-18T08:32:55;17.67;;;15.00;;
22929;SDS011;11630;42.660;23.292;2023-09-18T08:35:26;19.17;;;16.13;;
22929;SDS011;11630;42.660;23.292;2023-09-18T08:37:56;19.70;;;15.57;;
22929;SDS011;11630;42.660;23.292;2023-09-18T08:40:27;20.10;;;15.60;;
22929;SDS011;11630;42.660;23.292;2023-09-18T08:42:59;22.07;;;15.90;;
22929;SDS011;11630;42.660;23.292;2023-09-18T08:45:44;23.23;;;15.83;;
22929;SDS011;11630;42.660;23.292;2023-09-18T08:48:16;24.60;;;16.77;;
22929;SDS011;11630;42.660;23.292;2023-09-18T08:50:48;20.53;;;16.40;;
22929;SDS011;11630;42.660;23.292;2023-09-18T08:53:19;27.73;;;16.77;;
22929;SDS011;11630;42.660;23.292;2023-09-18T08:55:50;22.30;;;15.00;;
22929;SDS011;11630;42.660;23.292;2023-09-18T08:58:21;21.73;;;15.23;;
22929;SDS011;11630;42.660;23.292;2023-09-18T09:00:53;23.57;;;14.80;;
22929;SDS011;11630;42.660;23.292;2023-09-18T09:03:23;19.00;;;13.80;;
22929;SDS011;11630;42.660;23.292;2023-09-18T09:05:55;20.97;;;14.43;;
22929;SDS011;11630;42.660;23.292;2023-09-18T09:08:27;18.17;;;14.73;;
22929;SDS011;11630;42.660;23.292;2023-09-18T09:10:57;19.67;;;13.43;;
22929;SDS011;11630;42.660;23.292;2023-09-18T09:13:28;16.93;;;13.30;;
22929;SDS011;11630;42.660;23.292;2023-09-18T09:15:59;16.03;;;13.97;;
22929;SDS011;11630;42.660;23.292;2023-09-18T09:18:30;18.53;;;14.33;;
22929;SDS011;11630;42.660;23.292;2023-09-18T09:21:04;21.03;;;14.13;;
22929;SDS011;11630;42.660;23.292;2023-09-18T09:23:45;20.47;;;13.60;;
22929;SDS011;11630;42.660;23.292;2023-09-18T09:26:16;23.50;;;14.27;;
22929;SDS011;11630;42.660;23.292;2023-09-18T09:28:47;16.67;;;13.37;;
22929;SDS011;11630;42.660;23.292;2023-09-18T09:31:24;21.80;;;13.50;;
22929;SDS011;11630;42.660;23.292;2023-09-18T09:34:00;9.63;;;8.60;;
22929;SDS011;11630;42.660;23.292;2023-09-18T09:36:31;13.27;;;7.47;;
22929;SDS011;11630;42.660;23.292;2023-09-18T09:39:02;15.07;;;10.53;;
22929;SDS011;11630;42.660;23.292;2023-09-18T09:41:32;18.67;;;9.83;;
22929;SDS011;11630;42.660;23.292;2023-09-18T09:44:04;13.80;;;10.63;;
22929;SDS011;11630;42.660;23.292;2023-09-18T09:46:37;21.03;;;8.97;;
22929;SDS011;11630;42.660;23.292;2023-09-18T09:49:17;9.73;;;8.73;;
22929;SDS011;11630;42.660;23.292;2023-09-18T09:51:47;14.03;;;9.60;;
22929;SDS011;11630;42.660;23.292;2023-09-18T09:54:19;15.70;;;8.80;;
22929;SDS011;11630;42.660;23.292;2023-09-18T09:56:49;16.83;;;11.13;;
22929;SDS011;11630;42.660;23.292;2023-09-18T09:59:19;15.77;;;8.57;;
22929;SDS011;11630;42.660;23.292;2023-09-18T10:01:50;19.07;;;10.13;;
22929;SDS011;11630;42.660;23.292;2023-09-18T10:04:22;13.70;;;9.97;;
22929;SDS011;11630;42.660;23.292;2023-09-18T10:06:58;12.53;;;8.73;;
22929;SDS011;11630;42.660;23.292;2023-09-18T10:09:38;12.60;;;9.00;;
22929;SDS011;11630;42.660;23.292;2023-09-18T10:12:11;13.10;;;9.70;;
22929;SDS011;11630;42.660;23.292;2023-09-18T10:14:43;11.30;;;9.90;;
22929;SDS011;11630;42.660;23.292;2023-09-18T10:17:16;21.53;;;10.27;;
22929;SDS011;11630;42.660;23.292;2023-09-18T10:19:54;11.80;;;9.27;;
22929;SDS011;11630;42.660;23.292;2023-09-18T10:22:29;12.97;;;8.90;;
22929;SDS011;11630;42.660;23.292;2023-09-18T10:25:04;21.67;;;10.93;;
22929;SDS011;11630;42.660;23.292;2023-09-18T10:27:33;18.53;;;9.63;;
22929;SDS011;11630;42.660;23.292;2023-09-18T10:30:06;11.23;;;9.97;;
22929;SDS011;11630;42.660;23.292;2023-09-18T10:32:38;11.53;;;8.27;;
22929;SDS011;11630;42.660;23.292;2023-09-18T10:35:09;13.30;;;8.47;;
22929;SDS011;11630;42.660;23.292;2023-09-18T10:37:46;21.97;;;10.00;;
22929;SDS011;11630;42.660;23.292;2023-09-18T10:40:11;11.43;;;8.20;;
22929;SDS011;11630;42.660;23.292;2023-09-18T10:42:43;14.13;;;10.07;;
22929;SDS011;11630;42.660;23.292;2023-09-18T10:45:15;14.28;;;9.08;;
22929;SDS011;11630;42.660;23.292;2023-09-18T10:47:46;12.82;;;8.20;;
22929;SDS011;11630;42.660;23.292;2023-09-18T10:50:24;14.47;;;8.80;;
22929;SDS011;11630;42.660;23.292;2023-09-18T10:52:59;11.60;;;8.00;;
22929;SDS011;11630;42.660;23.292;2023-09-18T10:55:29;12.58;;;7.75;;
22929;SDS011;11630;42.660;23.292;2023-09-18T10:58:00;9.75;;;7.90;;
22929;SDS011;11630;42.660;23.292;2023-09-18T11:00:31;10.63;;;7.20;;
22929;SDS011;11630;42.660;23.292;2023-09-18T11:03:12;13.87;;;8.17;;
22929;SDS011;11630;42.660;23.292;2023-09-18T11:05:46;11.83;;;7.25;;
22929;SDS011;11630;42.660;23.292;2023-09-18T11:08:29;9.90;;;7.92;;
22929;SDS011;11630;42.660;23.292;2023-09-18T11:11:08;16.48;;;7.28;;
22929;SDS011;11630;42.660;23.292;2023-09-18T11:13:40;6.90;;;6.30;;
22929;SDS011;11630;42.660;23.292;2023-09-18T11:21:33;14.60;;;6.95;;
22929;SDS011;11630;42.660;23.292;2023-09-18T11:24:04;12.80;;;7.65;;
22929;SDS011;11630;42.660;23.292;2023-09-18T11:26:39;9.15;;;5.92;;
22929;SDS011;11630;42.660;23.292;2023-09-18T11:29:10;11.65;;;6.78;;
22929;SDS011;11630;42.660;23.292;2023-09-18T11:31:50;8.20;;;6.40;;
22929;SDS011;11630;42.660;23.292;2023-09-18T11:34:28;6.87;;;6.17;;
22929;SDS011;11630;42.660;23.292;2023-09-18T11:36:59;8.05;;;6.20;;
22929;SDS011;11630;42.660;23.292;2023-09-18T11:39:34;8.15;;;5.62;;
22929;SDS011;11630;42.660;23.292;2023-09-18T11:42:09;7.53;;;6.05;;
22929;SDS011;11630;42.660;23.292;2023-09-18T11:44:38;11.08;;;6.45;;
22929;SDS011;11630;42.660;23.292;2023-09-18T11:47:10;10.50;;;5.90;;
22929;SDS011;11630;42.660;23.292;2023-09-18T11:49:48;9.03;;;6.37;;
22929;SDS011;11630;42.660;23.292;2023-09-18T11:52:23;10.82;;;5.90;;
22929;SDS011;11630;42.660;23.292;2023-09-18T11:54:55;12.15;;;5.65;;
22929;SDS011;11630;42.660;23.292;2023-09-18T11:57:27;7.45;;;5.42;;
22929;SDS011;11630;42.660;23.292;2023-09-18T11:59:58;13.20;;;6.53;;
22929;SDS011;11630;42.660;23.292;2023-09-18T12:02:29;25.72;;;6.92;;
22929;SDS011;11630;42.660;23.292;2023-09-18T12:07:45;6.62;;;5.70;;
22929;SDS011;11630;42.660;23.292;2023-09-18T12:10:16;6.65;;;4.70;;
22929;SDS011;11630;42.660;23.292;2023-09-18T12:12:49;13.25;;;5.85;;
22929;SDS011;11630;42.660;23.292;2023-09-18T12:15:20;6.30;;;5.35;;
22929;SDS011;11630;42.660;23.292;2023-09-18T12:17:54;6.65;;;5.03;;
22929;SDS011;11630;42.660;23.292;2023-09-18T12:20:25;11.05;;;5.17;;
22929;SDS011;11630;42.660;23.292;2023-09-18T12:22:56;9.80;;;5.62;;
22929;SDS011;11630;42.660;23.292;2023-09-18T12:25:27;11.00;;;5.60;;
22929;SDS011;11630;42.660;23.292;2023-09-18T12:27:58;12.65;;;5.60;;
22929;SDS011;11630;42.660;23.292;2023-09-18T12:30:29;10.53;;;6.85;;
22929;SDS011;11630;42.660;23.292;2023-09-18T12:33:01;11.05;;;5.12;;
22929;SDS011;11630;42.660;23.292;2023-09-18T12:35:31;5.90;;;5.30;;
22929;SDS011;11630;42.660;23.292;2023-09-18T12:38:12;16.60;;;7.28;;
22929;SDS011;11630;42.660;23.292;2023-09-18T12:40:35;7.92;;;5.70;;
22929;SDS011;11630;42.660;23.292;2023-09-18T12:43:06;11.95;;;6.22;;
22929;SDS011;11630;42.660;23.292;2023-09-18T12:45:37;16.87;;;6.37;;
22929;SDS011;11630;42.660;23.292;2023-09-18T12:48:08;10.40;;;6.50;;
22929;SDS011;11630;42.660;23.292;2023-09-18T12:50:41;11.87;;;6.27;;
22929;SDS011;11630;42.660;23.292;2023-09-18T12:53:12;6.58;;;5.25;;
22929;SDS011;11630;42.660;23.292;2023-09-18T12:55:43;6.20;;;5.15;;
22929;SDS011;11630;42.660;23.292;2023-09-18T12:58:18;11.95;;;5.45;;
22929;SDS011;11630;42.660;23.292;2023-09-18T13:00:48;10.90;;;5.67;;
22929;SDS011;11630;42.660;23.292;2023-09-18T13:03:20;7.42;;;6.12;;
22929;SDS011;11630;42.660;23.292;2023-09-18T13:05:51;10.23;;;5.87;;
22929;SDS011;11630;42.660;23.292;2023-09-18T13:08:22;9.08;;;5.25;;
22929;SDS011;11630;42.660;23.292;2023-09-18T13:10:53;10.00;;;5.40;;
22929;SDS011;11630;42.660;23.292;2023-09-18T13:13:24;12.15;;;6.67;;
22929;SDS011;11630;42.660;23.292;2023-09-18T13:15:58;6.40;;;5.80;;
22929;SDS011;11630;42.660;23.292;2023-09-18T13:18:30;6.70;;;5.55;;
22929;SDS011;11630;42.660;23.292;2023-09-18T13:21:08;9.83;;;6.15;;
22929;SDS011;11630;42.660;23.292;2023-09-18T13:23:37;7.72;;;5.55;;
22929;SDS011;11630;42.660;23.292;2023-09-18T13:26:09;13.70;;;5.33;;
22929;SDS011;11630;42.660;23.292;2023-09-18T13:28:39;9.85;;;5.85;;
22929;SDS011;11630;42.660;23.292;2023-09-18T13:31:10;8.93;;;5.35;;
22929;SDS011;11630;42.660;23.292;2023-09-18T13:33:41;9.08;;;5.70;;
22929;SDS011;11630;42.660;23.292;2023-09-18T13:36:12;9.75;;;5.28;;
22929;SDS011;11630;42.660;23.292;2023-09-18T13:38:42;10.18;;;5.35;;
22929;SDS011;11630;42.660;23.292;2023-09-18T13:41:13;8.88;;;5.33;;
22929;SDS011;11630;42.660;23.292;2023-09-18T13:43:43;8.55;;;6.35;;
22929;SDS011;11630;42.660;23.292;2023-09-18T13:46:14;6.90;;;5.03;;
22929;SDS011;11630;42.660;23.292;2023-09-18T13:48:45;7.55;;;5.80;;
22929;SDS011;11630;42.660;23.292;2023-09-18T13:51:15;7.12;;;6.37;;
22929;SDS011;11630;42.660;23.292;2023-09-18T13:53:46;9.73;;;5.15;;
22929;SDS011;11630;42.660;23.292;2023-09-18T13:56:17;11.53;;;5.78;;
22929;SDS011;11630;42.660;23.292;2023-09-18T13:58:48;6.65;;;5.67;;
22929;SDS011;11630;42.660;23.292;2023-09-18T14:01:19;7.50;;;5.47;;
22929;SDS011;11630;42.660;23.292;2023-09-18T14:03:50;16.55;;;5.60;;
22929;SDS011;11630;42.660;23.292;2023-09-18T14:06:21;18.65;;;5.92;;
22929;SDS011;11630;42.660;23.292;2023-09-18T14:08:51;6.58;;;5.85;;
22929;SDS011;11630;42.660;23.292;2023-09-18T14:11:22;10.75;;;5.12;;
22929;SDS011;11630;42.660;23.292;2023-09-18T14:13:52;12.70;;;6.70;;
22929;SDS011;11630;42.660;23.292;2023-09-18T14:16:23;11.53;;;6.10;;
22929;SDS011;11630;42.660;23.292;2023-09-18T14:18:54;7.28;;;5.65;;
22929;SDS011;11630;42.660;23.292;2023-09-18T14:21:24;5.83;;;5.25;;
22929;SDS011;11630;42.660;23.292;2023-09-18T14:23:55;6.90;;;6.12;;
22929;SDS011;11630;42.660;23.292;2023-09-18T14:26:27;8.43;;;5.60;;
22929;SDS011;11630;42.660;23.292;2023-09-18T14:28:58;7.28;;;5.90;;
22929;SDS011;11630;42.660;23.292;2023-09-18T14:31:28;11.13;;;5.93;;
22929;SDS011;11630;42.660;23.292;2023-09-18T14:33:59;5.67;;;5.20;;
22929;SDS011;11630;42.660;23.292;2023-09-18T14:36:31;9.58;;;6.60;;
22929;SDS011;11630;42.660;23.292;2023-09-18T14:39:04;9.43;;;5.42;;
22929;SDS011;11630;42.660;23.292;2023-09-18T14:41:36;16.15;;;6.70;;
22929;SDS011;11630;42.660;23.292;2023-09-18T14:44:07;7.47;;;5.22;;
22929;SDS011;11630;42.660;23.292;2023-09-18T14:46:38;10.08;;;5.60;;
22929;SDS011;11630;42.660;23.292;2023-09-18T14:49:12;10.10;;;6.85;;